Time;durP1;ratioP1;P1;durP2;ratioP2;P2;SDS_P1;SDS_P2;PMS_P1;PMS_P2;Temp;Humidity;BMP_temperature;BMP_pressure;BME280_temperature;BME280_humidity;BME280_pressure;Samples;Min_cycle;Max_cycle;Signal;HPM_P1;HPM_P2
2022/11/07 00:03:55;;;;;;;7.67;3.60;;;10.70;97.10;;;;;;20921624;28;20720;-71
2022/11/07 00:13:57;;;;;;;4.67;3.43;;;10.70;97.30;;;;;;20920642;28;20270;-72
2022/11/07 00:23:59;;;;;;;4.70;3.40;;;10.80;96.90;;;;;;20920375;28;20263;-71
2022/11/07 00:34:02;;;;;;;4.60;3.50;;;10.90;97.30;;;;;;20919129;28;20231;-70
2022/11/07 00:44:04;;;;;;;6.13;3.87;;;11.00;97.30;;;;;;20918266;28;20211;-71
2022/11/07 00:54:05;;;;;;;3.90;3.03;;;11.10;97.20;;;;;;20917916;28;20250;-71
2022/11/07 01:14:31;;;;;;;3.70;2.80;;;11.20;97.20;;;;;;20916141;28;20243;-71
2022/11/07 01:24:33;;;;;;;5.43;3.13;;;11.30;97.00;;;;;;20848686;28;20235;-71
2022/11/07 01:34:35;;;;;;;7.00;3.13;;;11.40;97.40;;;;;;20831185;28;20239;-71
2022/11/07 01:52:24;;;;;;;5.03;3.47;;;11.40;97.40;;;;;;21152863;27;20279;-68
2022/11/07 02:02:27;;;;;;;4.43;3.00;;;11.50;97.60;;;;;;21151932;28;20213;-71
2022/11/07 02:12:29;;;;;;;5.97;3.10;;;11.60;98.10;;;;;;21152195;28;20213;-69
2022/11/07 02:22:39;;;;;;;4.20;3.23;;;11.60;98.40;;;;;;21150433;28;20208;-71
2022/11/07 02:32:41;;;;;;;5.20;3.10;;;11.70;98.80;;;;;;21149241;28;20259;-71
2022/11/07 02:42:43;;;;;;;9.77;3.50;;;11.70;99.10;;;;;;21152280;28;20717;-71
2022/11/07 02:52:44;;;;;;;4.23;3.00;;;11.70;99.40;;;;;;21233070;28;20213;-70
2022/11/07 03:02:46;;;;;;;6.00;3.00;;;11.80;99.80;;;;;;21179955;28;20296;-71
2022/11/07 03:12:48;;;;;;;4.73;3.10;;;11.80;99.90;;;;;;21174290;28;20245;-71
2022/11/07 03:22:50;;;;;;;5.53;2.93;;;11.90;99.90;;;;;;21127545;28;20259;-70
2022/11/07 03:32:52;;;;;;;3.70;2.70;;;11.90;99.90;;;;;;21086055;28;20203;-71
2022/11/07 03:42:54;;;;;;;3.90;2.63;;;12.00;99.90;;;;;;21087352;28;20763;-72
2022/11/07 03:52:56;;;;;;;6.87;2.77;;;12.00;99.90;;;;;;21086963;28;20213;-72
2022/11/07 04:02:57;;;;;;;5.13;2.60;;;12.00;99.90;;;;;;21085835;28;20264;-70
2022/11/07 04:23:19;;;;;;;4.30;2.70;;;11.90;99.90;;;;;;21084631;28;20303;-71
2022/11/07 04:33:21;;;;;;;4.83;2.23;;;11.90;99.90;;;;;;21083470;28;20604;-68
2022/11/07 04:43:25;;;;;;;5.33;2.50;;;11.90;99.90;;;;;;21082449;28;20286;-69
2022/11/07 04:53:26;;;;;;;4.03;2.70;;;11.80;99.90;;;;;;21082136;28;20236;-69
2022/11/07 05:03:28;;;;;;;5.00;3.00;;;11.80;99.90;;;;;;21081374;28;20280;-70
2022/11/07 05:13:30;;;;;;;4.93;3.20;;;11.70;99.90;;;;;;21080417;28;20202;-68
2022/11/07 05:23:31;;;;;;;3.13;2.20;;;11.70;99.90;;;;;;21077715;28;20245;-72
2022/11/07 05:33:34;;;;;;;8.40;4.30;;;11.70;99.90;;;;;;21076774;28;20214;-71
2022/11/07 05:43:37;;;;;;;5.00;2.40;;;11.80;99.90;;;;;;21078290;28;20314;-71
2022/11/07 05:53:39;;;;;;;6.63;2.60;;;11.90;99.90;;;;;;21078308;28;20210;-70
2022/11/07 06:03:40;;;;;;;5.90;2.40;;;12.00;99.90;;;;;;21077825;28;20229;-70
2022/11/07 06:13:42;;;;;;;5.20;2.70;;;12.10;99.90;;;;;;21077039;28;20247;-68
2022/11/07 06:23:44;;;;;;;9.67;4.43;;;12.20;99.90;;;;;;21075603;28;20259;-70
2022/11/07 06:33:49;;;;;;;3.80;2.37;;;12.20;99.90;;;;;;21084304;28;20221;-72
2022/11/07 06:43:51;;;;;;;5.87;2.37;;;12.30;99.90;;;;;;21090201;28;20244;-67
2022/11/07 06:53:53;;;;;;;8.93;2.60;;;12.40;99.90;;;;;;21090407;28;20211;-70
2022/11/07 07:03:55;;;;;;;5.70;2.27;;;12.50;99.90;;;;;;21086990;28;20284;-66
2022/11/07 07:13:56;;;;;;;3.70;2.10;;;12.60;99.90;;;;;;21086978;28;20212;-66
2022/11/07 07:24:03;;;;;;;5.73;1.93;;;;;;;;;;21084944;28;20778;-69
2022/11/07 07:34:05;;;;;;;5.33;1.90;;;12.80;99.90;;;;;;21081399;28;20626;-72
2022/11/07 07:44:06;;;;;;;9.37;2.13;;;12.90;99.90;;;;;;21085207;28;20238;-71
2022/11/07 07:54:10;;;;;;;5.20;2.00;;;13.00;99.90;;;;;;21084651;28;20199;-70
2022/11/07 08:04:12;;;;;;;7.07;2.17;;;13.10;99.90;;;;;;21083906;28;20235;-66
2022/11/07 08:14:14;;;;;;;3.73;1.60;;;13.30;99.90;;;;;;21083154;28;20275;-71
2022/11/07 08:24:16;;;;;;;4.57;1.90;;;13.40;99.90;;;;;;21064471;28;20291;-73
2022/11/07 08:34:17;;;;;;;6.57;2.10;;;13.60;99.50;;;;;;21081780;28;20282;-73
2022/11/07 08:44:19;;;;;;;6.00;1.90;;;13.80;98.70;;;;;;21080725;28;20256;-71
2022/11/07 08:54:21;;;;;;;3.73;1.80;;;13.90;99.00;;;;;;21079699;28;20199;-72
2022/11/07 09:04:22;;;;;;;5.80;2.00;;;13.90;98.90;;;;;;21079595;28;20245;-73
2022/11/07 09:14:24;;;;;;;5.50;2.00;;;13.90;98.50;;;;;;21079089;28;20213;-73
2022/11/07 09:24:26;;;;;;;6.87;2.13;;;14.00;98.70;;;;;;21077434;28;20234;-73
2022/11/07 09:34:28;;;;;;;7.13;1.90;;;14.00;98.60;;;;;;21075930;28;20206;-69
2022/11/07 09:44:55;;;;;;;6.17;1.90;;;14.00;98.60;;;;;;21077373;28;20246;-71
2022/11/07 09:55:22;;;;;;;5.47;1.77;;;14.10;98.40;;;;;;21078167;28;20593;-69
2022/11/07 10:05:53;;;;;;;3.23;1.77;;;14.20;98.30;;;;;;21079483;28;20226;-73
2022/11/07 10:16:19;;;;;;;6.37;1.90;;;14.40;98.20;;;;;;21093455;28;20209;-72
2022/11/07 10:26:24;;;;;;;5.07;1.70;;;14.80;97.10;;;;;;21092333;28;20265;-72
2022/11/07 10:36:31;;;;;;;6.57;2.10;;;14.70;96.70;;;;;;21092062;28;20276;-71
2022/11/07 10:46:43;;;;;;;7.03;2.20;;;14.80;96.30;;;;;;21090862;28;20238;-70
2022/11/07 10:57:01;;;;;;;6.70;1.57;;;14.90;96.00;;;;;;21090143;28;20308;-73
2022/11/07 11:07:09;;;;;;;7.60;2.07;;;14.90;96.40;;;;;;21088985;28;20234;-70
2022/11/07 11:17:27;;;;;;;7.97;2.00;;;14.80;96.60;;;;;;21088213;28;20209;-70
2022/11/07 11:27:32;;;;;;;11.10;1.80;;;14.90;97.10;;;;;;21085499;28;20231;-73
2022/11/07 11:37:40;;;;;;;8.77;1.93;;;14.60;97.80;;;;;;21086281;28;20210;-71
2022/11/07 11:47:53;;;;;;;6.90;1.90;;;14.50;98.40;;;;;;21085416;28;20697;-72
2022/11/07 11:57:58;;;;;;;5.87;2.07;;;14.40;99.00;;;;;;21085095;28;20206;-70
2022/11/07 12:08:33;;;;;;;4.33;1.70;;;14.80;99.00;;;;;;21084309;28;20763;-73
2022/11/07 12:18:56;;;;;;;4.57;1.90;;;14.90;98.80;;;;;;21080704;28;20650;-67
2022/11/07 12:29:14;;;;;;;7.23;1.80;;;15.10;97.90;;;;;;21081491;28;20238;-67
2022/11/07 12:39:42;;;;;;;4.50;1.70;;;15.00;97.10;;;;;;21064470;28;20654;-70
2022/11/07 12:50:12;;;;;;;3.60;1.87;;;15.00;97.00;;;;;;21030470;28;20254;-71
2022/11/07 13:00:17;;;;;;;4.83;1.90;;;15.00;96.40;;;;;;21080494;28;20222;-68
2022/11/07 13:10:30;;;;;;;3.33;2.07;;;15.00;96.80;;;;;;21076561;28;20234;-70
2022/11/07 13:20:32;;;;;;;6.27;2.10;;;14.90;96.90;;;;;;21079299;28;20205;-75
2022/11/07 13:30:36;;;;;;;4.97;2.17;;;14.90;97.00;;;;;;21147267;28;20241;-75
2022/11/07 13:40:57;;;;;;;3.20;1.70;;;14.90;97.30;;;;;;21160751;28;20204;-75
2022/11/07 13:51:04;;;;;;;8.03;2.00;;;15.00;97.50;;;;;;21161805;28;20233;-74
2022/11/07 14:01:11;;;;;;;7.73;1.80;;;15.20;97.20;;;;;;21161758;28;20615;-74
2022/11/07 14:11:21;;;;;;;10.67;2.20;;;15.20;97.50;;;;;;21161398;28;20263;-75
2022/11/07 14:21:32;;;;;;;11.80;2.70;;;15.60;97.20;;;;;;21146601;28;20205;-71
2022/11/07 14:31:36;;;;;;;6.03;2.20;;;15.50;97.10;;;;;;21089896;28;20259;-72
2022/11/07 14:41:41;;;;;;;8.73;2.23;;;15.30;97.00;;;;;;21072606;28;20265;-71
2022/11/07 14:51:42;;;;;;;8.13;2.00;;;15.20;97.00;;;;;;21059322;28;20246;-71
2022/11/07 15:02:03;;;;;;;3.90;1.83;;;15.00;96.90;;;;;;21090510;28;20260;-67
2022/11/07 15:12:16;;;;;;;8.07;1.90;;;14.90;96.90;;;;;;21088827;28;20226;-67
2022/11/07 15:22:29;;;;;;;5.43;2.07;;;14.90;97.00;;;;;;21089219;28;20216;-67
2022/11/07 15:32:39;;;;;;;5.83;1.83;;;14.80;97.10;;;;;;21087285;28;20718;-67
2022/11/07 15:42:41;;;;;;;6.90;2.47;;;14.70;97.10;;;;;;21086918;28;20240;-67
2022/11/07 15:52:44;;;;;;;7.53;2.10;;;14.70;97.10;;;;;;21081370;28;20274;-66
2022/11/07 16:02:47;;;;;;;6.00;2.30;;;14.60;97.20;;;;;;21083762;28;20737;-68
2022/11/07 16:12:49;;;;;;;6.13;2.27;;;14.60;97.20;;;;;;21084385;28;20234;-67
2022/11/07 16:22:51;;;;;;;5.10;1.70;;;14.60;97.30;;;;;;21085372;28;20211;-68
2022/11/07 16:32:53;;;;;;;6.70;2.27;;;14.60;97.10;;;;;;21080918;28;20234;-68
2022/11/07 16:42:54;;;;;;;7.53;2.60;;;14.50;97.50;;;;;;21081197;28;20235;-67
2022/11/07 16:52:56;;;;;;;12.07;2.43;;;14.50;97.60;;;;;;21081734;28;20234;-67
2022/11/07 17:02:58;;;;;;;6.47;2.40;;;14.50;97.70;;;;;;21081344;28;20217;-67
2022/11/07 17:12:59;;;;;;;3.77;2.00;;;14.50;97.90;;;;;;21077979;28;20318;-72
2022/11/07 17:23:01;;;;;;;6.47;3.10;;;14.50;98.00;;;;;;21079173;28;20211;-73
2022/11/07 17:33:03;;;;;;;7.73;4.17;;;14.40;97.80;;;;;;21078971;28;20234;-69
2022/11/07 17:43:05;;;;;;;10.87;5.30;;;14.40;98.10;;;;;;21078454;28;20264;-71
2022/11/07 17:53:08;;;;;;;6.97;3.13;;;14.40;98.20;;;;;;21099825;28;20291;-73
2022/11/07 18:03:10;;;;;;;5.23;2.20;;;14.20;98.30;;;;;;21093951;28;20970;-69
2022/11/07 18:13:13;;;;;;;5.87;2.50;;;14.30;98.40;;;;;;21071808;28;20693;-69
2022/11/07 18:23:15;;;;;;;7.73;3.07;;;14.20;98.40;;;;;;21100758;28;20213;-65
2022/11/07 18:33:16;;;;;;;10.10;3.87;;;14.20;98.50;;;;;;21174494;28;20700;-69
2022/11/07 18:43:18;;;;;;;6.47;2.67;;;14.10;98.50;;;;;;21135153;28;20245;-75
2022/11/07 18:53:20;;;;;;;8.63;2.57;;;14.10;98.60;;;;;;21090436;28;20603;-77
2022/11/07 19:03:22;;;;;;;7.17;3.10;;;14.00;98.60;;;;;;21091452;28;20214;-77
2022/11/07 19:13:25;;;;;;;15.93;4.20;;;13.90;98.50;;;;;;21090158;28;20261;-77
2022/11/07 19:23:26;;;;;;;6.60;3.20;;;13.80;98.80;;;;;;21089611;28;20202;-78
2022/11/07 19:33:28;;;;;;;6.50;3.20;;;13.80;98.80;;;;;;21099177;28;20652;-70
2022/11/07 19:43:30;;;;;;;6.03;3.17;;;13.80;98.80;;;;;;21105180;28;20576;-76
2022/11/07 19:53:32;;;;;;;7.00;2.90;;;13.80;98.80;;;;;;21086469;28;20282;-69
2022/11/07 20:03:34;;;;;;;8.17;2.97;;;13.70;98.70;;;;;;21134540;28;20221;-76
2022/11/07 20:13:36;;;;;;;9.10;3.10;;;13.70;98.70;;;;;;21167738;28;20293;-74
2022/11/07 20:23:39;;;;;;;6.90;2.97;;;13.80;98.80;;;;;;21167632;28;20269;-79
2022/11/07 20:33:41;;;;;;;9.37;3.63;;;13.70;98.70;;;;;;21166893;28;20233;-76
2022/11/07 20:43:43;;;;;;;9.13;3.17;;;13.70;98.50;;;;;;21165419;28;20227;-75
2022/11/07 20:53:45;;;;;;;10.73;3.77;;;13.60;98.50;;;;;;21166078;28;20718;-70
2022/11/07 21:03:51;;;;;;;10.50;3.33;;;13.60;98.80;;;;;;21164471;28;20845;-69
2022/11/07 21:13:53;;;;;;;8.50;4.03;;;13.50;98.90;;;;;;21163302;28;20286;-74
2022/11/07 21:23:56;;;;;;;7.83;4.17;;;13.40;98.90;;;;;;21162746;28;20219;-73
2022/11/07 21:33:58;;;;;;;10.27;4.87;;;13.30;99.10;;;;;;21162052;28;20701;-70
2022/11/07 21:44:00;;;;;;;11.60;5.80;;;13.20;99.30;;;;;;21161285;28;20234;-71
2022/11/07 21:54:04;;;;;;;16.63;8.20;;;13.00;99.50;;;;;;21161306;28;20239;-71
2022/11/07 22:04:08;;;;;;;14.95;6.50;;;12.90;99.70;;;;;;21114352;28;20209;-66
2022/11/07 22:14:17;;;;;;;11.83;5.60;;;12.70;99.90;;;;;;21093371;28;20432;-68
2022/11/07 22:24:19;;;;;;;10.83;5.80;;;12.50;99.90;;;;;;21094441;28;20214;-69
2022/11/07 22:34:21;;;;;;;12.47;5.63;;;12.40;99.90;;;;;;21094228;28;20556;-74
2022/11/07 22:44:22;;;;;;;12.07;4.73;;;12.10;99.90;;;;;;21092771;28;20290;-73
2022/11/07 22:54:24;;;;;;;10.30;4.53;;;11.90;99.90;;;;;;21092048;28;20206;-70
2022/11/07 23:04:26;;;;;;;10.37;4.80;;;11.70;99.90;;;;;;21091659;28;20259;-67
2022/11/07 23:14:33;;;;;;;12.30;5.60;;;11.60;99.90;;;;;;21088891;28;20214;-77
2022/11/07 23:24:35;;;;;;;11.83;5.07;;;11.50;99.90;;;;;;21095493;28;20230;-80
2022/11/07 23:34:37;;;;;;;7.33;5.20;;;11.30;99.90;;;;;;21087323;28;20209;-79
